Time;durP1;ratioP1;P1;durP2;ratioP2;P2;SDS_P1;SDS_P2;PMS_P1;PMS_P2;Temp;Humidity;BMP_temperature;BMP_pressure;BME280_temperature;BME280_humidity;BME280_pressure;Samples;Min_cycle;Max_cycle;Signal;HPM_P1;HPM_P2
2023/07/22 00:01:59;;;;;;;1.75;0.93;;;18.00;69.30;;;;;;5080030;28;20473;-61
2023/07/22 00:04:26;;;;;;;1.75;1.27;;;18.00;69.30;;;;;;5078562;28;20482;-61
2023/07/22 00:06:51;;;;;;;1.90;1.33;;;18.00;69.90;;;;;;5076565;28;20040;-61
2023/07/22 00:09:17;;;;;;;2.28;1.38;;;17.90;69.40;;;;;;5081323;28;20039;-61
2023/07/22 00:11:43;;;;;;;1.35;0.90;;;17.90;69.60;;;;;;5071019;28;20055;-61
2023/07/22 00:14:09;;;;;;;1.77;1.48;;;17.90;69.70;;;;;;5076104;28;20115;-61
2023/07/22 00:16:35;;;;;;;1.88;1.42;;;17.90;69.70;;;;;;5074685;28;20388;-61
2023/07/22 00:19:01;;;;;;;2.80;1.60;;;17.80;69.90;;;;;;5073953;28;20071;-61
2023/07/22 00:21:29;;;;;;;1.98;1.30;;;17.80;70.10;;;;;;5073261;28;20471;-61
2023/07/22 00:23:54;;;;;;;2.30;1.50;;;17.70;70.20;;;;;;5075048;28;20024;-62
2023/07/22 00:26:20;;;;;;;2.78;1.30;;;17.70;70.30;;;;;;5079940;28;20036;-62
2023/07/22 00:28:46;;;;;;;2.22;1.20;;;17.70;70.50;;;;;;5077343;28;20043;-62
2023/07/22 00:31:11;;;;;;;1.67;1.15;;;17.60;70.60;;;;;;5080021;28;20115;-62
2023/07/22 00:33:37;;;;;;;1.73;1.10;;;17.60;70.70;;;;;;5077984;28;20033;-62
2023/07/22 00:36:03;;;;;;;2.28;1.35;;;17.60;70.70;;;;;;5072206;28;20037;-63
2023/07/22 00:38:28;;;;;;;2.30;1.10;;;17.60;70.80;;;;;;5081352;28;20111;-61
2023/07/22 00:40:54;;;;;;;3.95;1.42;;;17.60;70.80;;;;;;5076267;28;20035;-61
2023/07/22 00:43:20;;;;;;;1.88;1.42;;;17.60;70.80;;;;;;5078540;28;20032;-62
2023/07/22 00:45:45;;;;;;;2.53;1.35;;;17.60;70.90;;;;;;5074211;28;20028;-62
2023/07/22 00:48:13;;;;;;;2.25;1.38;;;17.50;70.90;;;;;;5079740;28;20032;-62
2023/07/22 00:50:39;;;;;;;2.50;1.65;;;17.50;70.90;;;;;;5079496;28;20535;-62
2023/07/22 00:53:05;;;;;;;1.45;1.13;;;17.50;71.00;;;;;;5080677;28;20387;-62
2023/07/22 00:55:35;;;;;;;2.08;1.40;;;17.40;71.10;;;;;;5081585;28;20021;-62
2023/07/22 00:58:01;;;;;;;2.10;1.10;;;17.40;71.20;;;;;;5082070;28;20016;-62
2023/07/22 01:00:27;;;;;;;1.98;1.50;;;17.40;71.30;;;;;;5078185;28;20051;-62
2023/07/22 01:02:53;;;;;;;1.23;1.13;;;17.30;71.20;;;;;;5080561;28;20032;-62
2023/07/22 01:05:18;;;;;;;4.97;2.47;;;17.30;71.30;;;;;;5071044;28;20020;-62
2023/07/22 01:07:44;;;;;;;2.30;1.40;;;17.30;71.50;;;;;;5082137;28;20035;-62
2023/07/22 01:10:11;;;;;;;1.88;1.10;;;17.20;71.50;;;;;;5074839;28;20573;-62
2023/07/22 01:12:36;;;;;;;2.05;1.33;;;17.20;71.60;;;;;;5075705;28;20019;-62
2023/07/22 01:15:07;;;;;;;1.42;0.85;;;17.20;71.70;;;;;;5077414;28;20036;-62
2023/07/22 01:17:34;;;;;;;2.75;1.42;;;17.20;71.80;;;;;;5068952;28;20021;-62
2023/07/22 01:20:00;;;;;;;1.80;1.30;;;17.20;71.80;;;;;;5078918;28;20036;-62
2023/07/22 01:22:27;;;;;;;2.88;1.48;;;17.20;72.10;;;;;;5076764;28;20040;-62
2023/07/22 01:24:54;;;;;;;8.70;1.42;;;17.20;72.20;;;;;;5071152;28;20486;-62
2023/07/22 01:27:19;;;;;;;2.28;1.00;;;17.10;72.20;;;;;;5073261;28;20032;-62
2023/07/22 01:29:45;;;;;;;2.17;1.08;;;17.20;73.00;;;;;;5072252;28;20443;-62
2023/07/22 01:32:11;;;;;;;3.40;1.83;;;17.20;72.40;;;;;;5073824;28;20050;-62
2023/07/22 01:34:36;;;;;;;2.35;1.40;;;17.20;72.50;;;;;;5077342;28;20033;-62
2023/07/22 01:37:04;;;;;;;2.15;1.02;;;17.20;72.40;;;;;;5071230;28;20029;-62
2023/07/22 01:39:30;;;;;;;2.65;1.48;;;17.20;72.50;;;;;;5071014;28;20025;-62
2023/07/22 01:41:55;;;;;;;2.33;1.45;;;17.20;72.60;;;;;;5074111;28;20384;-62
2023/07/22 01:44:21;;;;;;;2.10;1.50;;;17.20;72.70;;;;;;5070581;28;20372;-62
2023/07/22 01:46:47;;;;;;;1.88;1.30;;;17.20;72.70;;;;;;5071091;28;20032;-62
2023/07/22 01:49:12;;;;;;;3.47;1.20;;;17.20;72.90;;;;;;5077055;28;20036;-62
2023/07/22 01:51:40;;;;;;;3.40;1.33;;;17.20;72.80;;;;;;5072685;28;20130;-62
2023/07/22 01:54:06;;;;;;;1.70;1.40;;;17.20;72.80;;;;;;5071918;28;20020;-62
2023/07/22 01:56:32;;;;;;;1.20;1.02;;;17.20;72.80;;;;;;5072845;28;20486;-62
2023/07/22 01:58:57;;;;;;;2.33;1.17;;;17.20;72.90;;;;;;5079082;28;20028;-62
2023/07/22 02:01:24;;;;;;;2.30;1.20;;;17.20;72.90;;;;;;5067734;28;20071;-62
2023/07/22 02:03:50;;;;;;;4.40;2.20;;;17.20;73.00;;;;;;5075309;28;20032;-62
2023/07/22 02:06:15;;;;;;;2.05;1.30;;;17.10;73.10;;;;;;5074087;28;20474;-62
2023/07/22 02:08:41;;;;;;;2.00;1.20;;;17.10;73.10;;;;;;5078593;28;20055;-62
2023/07/22 02:11:10;;;;;;;4.07;1.75;;;17.10;73.30;;;;;;5075099;28;20031;-62
2023/07/22 02:13:36;;;;;;;1.65;1.23;;;17.10;73.30;;;;;;5079422;28;20386;-62
2023/07/22 02:16:03;;;;;;;1.55;1.20;;;17.00;73.20;;;;;;5083457;28;20111;-62
2023/07/22 02:18:29;;;;;;;1.65;1.30;;;17.00;73.30;;;;;;5069719;28;20044;-62
2023/07/22 02:20:56;;;;;;;1.88;1.10;;;17.00;73.30;;;;;;5083470;28;20074;-61
2023/07/22 02:23:22;;;;;;;3.35;1.85;;;17.00;73.40;;;;;;5081715;28;20036;-61
2023/07/22 02:25:49;;;;;;;1.48;1.20;;;16.90;73.40;;;;;;5076805;28;20020;-61
2023/07/22 02:28:15;;;;;;;3.05;1.67;;;16.90;73.50;;;;;;5081178;28;20063;-61
2023/07/22 02:30:41;;;;;;;2.72;1.42;;;16.90;73.50;;;;;;5079373;28;20060;-61
2023/07/22 02:33:08;;;;;;;2.63;1.70;;;16.80;73.60;;;;;;5077963;28;20107;-61
2023/07/22 02:35:34;;;;;;;2.20;1.85;;;16.80;73.80;;;;;;5071503;28;20012;-62
2023/07/22 02:38:00;;;;;;;2.88;1.90;;;16.80;73.90;;;;;;5069583;28;20040;-62
2023/07/22 02:40:26;;;;;;;2.30;1.50;;;16.80;74.00;;;;;;5078647;28;20486;-62
2023/07/22 02:42:51;;;;;;;3.35;1.77;;;16.70;74.00;;;;;;5078347;28;20028;-61
2023/07/22 02:45:17;;;;;;;3.10;1.27;;;16.70;74.00;;;;;;5073813;28;20032;-61
2023/07/22 02:47:43;;;;;;;1.70;1.42;;;16.70;74.00;;;;;;5073136;28;20040;-62
2023/07/22 02:50:09;;;;;;;2.28;1.50;;;16.70;74.10;;;;;;5073371;28;20147;-61
2023/07/22 02:52:35;;;;;;;3.03;1.33;;;16.70;74.20;;;;;;5069466;28;20116;-62
2023/07/22 02:55:07;;;;;;;2.25;1.40;;;16.60;74.10;;;;;;5076546;28;20072;-62
2023/07/22 02:57:34;;;;;;;4.22;2.40;;;16.60;74.20;;;;;;5078252;28;20051;-62
2023/07/22 02:59:59;;;;;;;2.65;1.50;;;16.50;74.20;;;;;;5086574;28;20593;-61
2023/07/22 03:02:25;;;;;;;3.88;1.75;;;16.50;74.30;;;;;;5073907;28;20075;-62
2023/07/22 03:04:51;;;;;;;4.78;1.90;;;16.50;74.40;;;;;;5084266;28;20040;-61
2023/07/22 03:07:16;;;;;;;2.50;1.70;;;16.50;74.40;;;;;;5086419;28;20074;-62
2023/07/22 03:09:42;;;;;;;3.17;1.80;;;16.40;74.30;;;;;;5083158;28;20542;-61
2023/07/22 03:12:08;;;;;;;1.80;1.38;;;16.40;74.40;;;;;;5084895;28;20383;-62
2023/07/22 03:14:37;;;;;;;2.03;1.40;;;16.30;74.50;;;;;;5077241;28;20029;-61
2023/07/22 03:17:06;;;;;;;3.13;1.75;;;16.30;74.50;;;;;;5086438;28;20107;-61
2023/07/22 03:19:31;;;;;;;3.45;1.83;;;16.30;74.50;;;;;;5081026;28;20057;-62
2023/07/22 03:21:57;;;;;;;3.13;1.52;;;16.30;74.60;;;;;;5077861;28;20032;-62
2023/07/22 03:24:23;;;;;;;2.40;1.50;;;16.20;74.60;;;;;;5079253;28;20068;-62
2023/07/22 03:26:49;;;;;;;2.72;1.85;;;16.20;74.60;;;;;;5076047;28;20033;-62
2023/07/22 03:29:14;;;;;;;2.05;1.35;;;16.20;74.70;;;;;;5076362;28;20050;-61
2023/07/22 03:31:40;;;;;;;4.95;2.35;;;16.10;74.60;;;;;;5075727;28;20036;-61
2023/07/22 03:34:05;;;;;;;3.88;2.40;;;16.10;74.70;;;;;;5070526;28;20024;-62
2023/07/22 03:36:34;;;;;;;1.90;1.52;;;16.10;74.70;;;;;;5074043;28;20115;-61
2023/07/22 03:38:59;;;;;;;2.05;1.85;;;16.10;74.70;;;;;;5068436;28;20519;-61
2023/07/22 03:41:25;;;;;;;2.95;1.63;;;16.10;74.70;;;;;;5077920;28;20123;-61
2023/07/22 03:43:51;;;;;;;3.92;1.88;;;16.00;74.70;;;;;;5070971;28;20162;-62
2023/07/22 03:46:17;;;;;;;5.43;1.70;;;16.00;74.70;;;;;;5083207;28;20494;-62
2023/07/22 03:48:42;;;;;;;3.75;1.92;;;16.00;74.80;;;;;;5077671;28;20047;-61
2023/07/22 03:51:08;;;;;;;3.22;2.38;;;16.00;74.70;;;;;;5076084;28;20025;-61
2023/07/22 03:53:34;;;;;;;3.67;2.00;;;16.00;74.80;;;;;;5073648;28;20075;-61
2023/07/22 03:56:00;;;;;;;3.67;2.08;;;16.00;74.80;;;;;;5085142;28;20020;-61
2023/07/22 03:58:25;;;;;;;2.83;1.67;;;16.00;74.90;;;;;;5073154;28;20036;-61
2023/07/22 04:00:51;;;;;;;3.22;1.70;;;16.00;75.00;;;;;;5073723;28;20081;-63
2023/07/22 04:03:17;;;;;;;2.60;2.30;;;16.00;75.10;;;;;;5075233;28;20029;-63
2023/07/22 04:05:42;;;;;;;4.85;2.35;;;16.00;75.00;;;;;;5079378;28;20043;-62
2023/07/22 04:08:08;;;;;;;3.38;1.88;;;16.00;75.10;;;;;;5076283;28;20135;-62
2023/07/22 04:10:34;;;;;;;4.13;2.65;;;16.00;75.20;;;;;;5077045;28;20097;-63
2023/07/22 04:12:59;;;;;;;2.20;1.42;;;16.00;75.20;;;;;;5077731;28;20047;-63
2023/07/22 04:15:25;;;;;;;5.07;2.78;;;16.00;75.10;;;;;;5076106;28;20107;-62
2023/07/22 04:17:50;;;;;;;2.55;2.10;;;16.00;75.20;;;;;;5073166;28;20044;-62
2023/07/22 04:20:17;;;;;;;3.80;2.10;;;16.00;75.20;;;;;;5080045;28;20113;-62
2023/07/22 04:22:43;;;;;;;4.45;2.58;;;16.00;75.20;;;;;;5084581;28;20820;-63
2023/07/22 04:25:09;;;;;;;2.92;2.10;;;16.00;75.20;;;;;;5073741;28;20032;-62
2023/07/22 04:27:35;;;;;;;5.70;2.63;;;16.00;75.30;;;;;;5076692;28;20035;-63
2023/07/22 04:30:01;;;;;;;4.03;2.25;;;16.10;75.40;;;;;;5077423;28;20089;-62
2023/07/22 04:32:26;;;;;;;4.03;1.92;;;16.10;75.40;;;;;;5082070;28;20162;-62
2023/07/22 04:34:52;;;;;;;2.25;1.75;;;16.10;75.30;;;;;;5071003;28;20024;-62
2023/07/22 04:37:18;;;;;;;4.05;2.03;;;16.10;75.30;;;;;;5078444;28;20037;-63
2023/07/22 04:39:48;;;;;;;4.35;2.25;;;16.20;75.40;;;;;;5081415;28;20034;-63
2023/07/22 04:42:14;;;;;;;3.90;1.95;;;16.20;75.90;;;;;;5080224;28;20032;-63
2023/07/22 04:44:40;;;;;;;3.40;2.50;;;16.20;75.40;;;;;;5077909;28;20028;-62
2023/07/22 04:47:06;;;;;;;4.88;2.80;;;16.30;75.60;;;;;;5076862;28;20031;-63
2023/07/22 04:49:32;;;;;;;3.45;2.00;;;16.30;75.60;;;;;;5079033;28;20252;-64
2023/07/22 04:51:57;;;;;;;3.97;2.53;;;16.30;75.70;;;;;;5081241;28;20041;-63
2023/07/22 04:54:23;;;;;;;6.22;2.25;;;16.40;75.80;;;;;;5079554;28;20024;-63
2023/07/22 04:56:49;;;;;;;4.03;2.50;;;16.40;75.70;;;;;;5079634;28;20043;-63
2023/07/22 04:59:15;;;;;;;4.53;3.00;;;16.50;75.80;;;;;;5078605;28;20115;-63
2023/07/22 05:01:41;;;;;;;3.15;2.50;;;16.60;75.80;;;;;;5080637;28;20036;-63
2023/07/22 05:04:07;;;;;;;5.63;3.10;;;16.60;75.80;;;;;;5079480;28;20024;-63
2023/07/22 05:06:33;;;;;;;4.70;2.85;;;16.60;75.90;;;;;;5081361;28;20033;-63
2023/07/22 05:08:58;;;;;;;4.53;2.58;;;16.70;75.90;;;;;;5071514;28;20028;-63
2023/07/22 05:11:24;;;;;;;4.15;2.50;;;16.70;75.90;;;;;;5074569;28;20036;-63
2023/07/22 05:13:50;;;;;;;4.68;2.70;;;16.80;76.00;;;;;;5080608;28;20032;-63
2023/07/22 05:16:16;;;;;;;4.80;2.95;;;16.80;76.10;;;;;;5080958;28;20403;-63
2023/07/22 05:18:42;;;;;;;5.78;2.97;;;16.80;76.00;;;;;;5074525;28;20522;-63
2023/07/22 05:21:07;;;;;;;5.57;3.15;;;16.90;76.20;;;;;;5068408;28;20082;-63
2023/07/22 05:23:34;;;;;;;5.35;3.13;;;16.90;76.20;;;;;;5072277;28;20471;-63
2023/07/22 05:25:59;;;;;;;6.80;3.60;;;17.00;76.10;;;;;;5070991;28;20115;-63
2023/07/22 05:28:25;;;;;;;7.95;4.10;;;17.00;76.10;;;;;;5076681;28;20198;-63
2023/07/22 05:30:51;;;;;;;5.78;3.28;;;17.10;76.20;;;;;;5071398;28;21247;-63
2023/07/22 05:33:17;;;;;;;7.43;3.13;;;17.10;76.30;;;;;;5074095;28;20038;-63
2023/07/22 05:35:42;;;;;;;12.68;4.07;;;17.20;76.40;;;;;;5071806;28;20028;-63
2023/07/22 05:38:08;;;;;;;9.13;3.47;;;17.20;76.40;;;;;;5084357;28;20029;-63
2023/07/22 05:40:34;;;;;;;5.93;3.17;;;17.20;76.30;;;;;;5077089;28;20031;-63
2023/07/22 05:42:59;;;;;;;6.50;3.63;;;17.30;76.20;;;;;;5080775;28;20028;-63
2023/07/22 05:45:25;;;;;;;7.00;3.50;;;17.30;76.00;;;;;;5077226;28;20032;-63
2023/07/22 05:47:51;;;;;;;5.32;3.45;;;17.40;76.00;;;;;;5080076;28;20060;-63
2023/07/22 05:50:16;;;;;;;5.85;3.33;;;17.40;76.10;;;;;;5080164;28;20029;-63
2023/07/22 05:52:42;;;;;;;7.13;3.95;;;17.50;75.90;;;;;;5078860;28;20105;-63
2023/07/22 05:55:08;;;;;;;5.35;3.50;;;17.70;75.70;;;;;;5080269;28;20107;-63
2023/07/22 05:57:34;;;;;;;7.20;4.50;;;17.70;75.40;;;;;;5080760;28;20103;-63
2023/07/22 06:00:00;;;;;;;7.25;4.38;;;17.70;75.30;;;;;;5051144;28;20096;-63
2023/07/22 06:02:26;;;;;;;8.88;5.20;;;17.60;75.40;;;;;;5075725;28;20090;-64
2023/07/22 06:04:51;;;;;;;7.88;4.32;;;17.60;75.60;;;;;;5076118;28;20478;-63
2023/07/22 06:07:18;;;;;;;7.43;4.43;;;17.60;75.70;;;;;;5077330;28;20036;-63
2023/07/22 06:09:43;;;;;;;10.90;5.22;;;17.70;75.60;;;;;;5077140;28;20550;-63
2023/07/22 06:12:09;;;;;;;8.05;4.03;;;17.70;75.60;;;;;;5069755;28;20032;-63
2023/07/22 06:14:35;;;;;;;8.52;4.38;;;17.80;75.50;;;;;;5073580;28;20032;-63
2023/07/22 06:17:01;;;;;;;8.32;4.72;;;17.90;75.40;;;;;;5078080;28;20024;-63
2023/07/22 06:19:26;;;;;;;6.80;4.50;;;18.00;75.10;;;;;;5072128;28;20040;-63
2023/07/22 06:21:52;;;;;;;9.98;5.43;;;18.10;75.00;;;;;;5073744;28;20024;-63
2023/07/22 06:24:18;;;;;;;11.57;5.20;;;18.10;74.70;;;;;;5071253;28;20078;-63
2023/07/22 06:26:43;;;;;;;8.40;4.45;;;18.10;74.70;;;;;;5070736;28;20033;-63
2023/07/22 06:29:09;;;;;;;11.63;5.65;;;18.10;74.80;;;;;;5070379;28;20048;-63
2023/07/22 06:31:35;;;;;;;10.18;4.70;;;18.10;74.70;;;;;;5073161;28;20105;-63
2023/07/22 06:34:00;;;;;;;9.57;3.72;;;18.10;74.80;;;;;;5062595;28;20025;-63
2023/07/22 06:36:26;;;;;;;7.53;4.05;;;18.20;74.80;;;;;;5079199;28;20086;-63
2023/07/22 06:38:52;;;;;;;7.07;4.15;;;18.20;74.80;;;;;;5073319;28;20246;-63
2023/07/22 06:41:19;;;;;;;8.57;4.90;;;18.30;74.70;;;;;;5077402;28;20032;-63
2023/07/22 06:43:44;;;;;;;6.60;4.05;;;18.30;74.60;;;;;;5067663;28;20048;-61
2023/07/22 06:46:10;;;;;;;10.30;4.55;;;18.40;74.30;;;;;;5071675;28;20487;-62
2023/07/22 06:48:36;;;;;;;8.02;3.88;;;18.50;74.10;;;;;;5073418;28;20123;-62
2023/07/22 06:51:01;;;;;;;9.15;4.53;;;18.50;73.90;;;;;;5068041;28;20091;-61
2023/07/22 06:53:27;;;;;;;9.65;5.32;;;18.50;74.00;;;;;;5076469;28;20064;-63
2023/07/22 06:55:53;;;;;;;8.52;4.43;;;18.60;73.90;;;;;;5070676;28;20032;-63
2023/07/22 06:58:19;;;;;;;8.05;4.22;;;18.60;73.80;;;;;;5072865;28;20055;-63
2023/07/22 07:00:45;;;;;;;6.82;3.95;;;18.70;73.70;;;;;;5073794;28;20070;-64
2023/07/22 07:03:11;;;;;;;7.15;4.07;;;18.70;73.50;;;;;;5079935;28;20032;-63
2023/07/22 07:05:41;;;;;;;6.72;3.75;;;18.80;73.30;;;;;;5069623;28;20478;-63
2023/07/22 07:08:07;;;;;;;6.75;3.55;;;18.90;73.30;;;;;;5071632;28;20031;-63
2023/07/22 07:10:37;;;;;;;11.10;3.58;;;18.90;73.10;;;;;;5059899;28;20419;-64
2023/07/22 07:13:03;;;;;;;10.75;4.75;;;19.00;73.00;;;;;;5079400;28;20036;-61
2023/07/22 07:15:29;;;;;;;5.47;2.92;;;19.10;72.70;;;;;;5070582;28;20453;-61
2023/07/22 07:17:54;;;;;;;5.00;3.15;;;19.10;72.50;;;;;;5065807;28;20024;-64
2023/07/22 07:20:20;;;;;;;5.25;3.03;;;19.10;72.30;;;;;;5074564;28;20419;-64
2023/07/22 07:22:46;;;;;;;4.20;3.30;;;19.20;72.20;;;;;;5069772;28;20399;-64
2023/07/22 07:25:12;;;;;;;8.32;4.32;;;19.20;72.20;;;;;;5065857;28;20041;-63
2023/07/22 07:27:38;;;;;;;9.60;5.05;;;19.30;72.10;;;;;;5066383;28;20028;-63
2023/07/22 07:30:05;;;;;;;6.38;4.00;;;19.30;72.00;;;;;;5070050;28;20112;-64
2023/07/22 07:32:31;;;;;;;5.57;2.88;;;19.30;72.10;;;;;;5069222;28;20039;-64
2023/07/22 07:34:56;;;;;;;5.55;2.88;;;19.40;71.90;;;;;;5074038;28;20029;-63
2023/07/22 07:37:23;;;;;;;4.57;2.92;;;19.50;71.80;;;;;;5069347;28;20032;-62
2023/07/22 07:39:48;;;;;;;3.95;2.28;;;19.60;71.70;;;;;;5073945;28;20410;-62
2023/07/22 07:42:14;;;;;;;6.13;3.05;;;19.80;71.30;;;;;;5073331;28;20036;-63
2023/07/22 07:44:40;;;;;;;7.18;3.50;;;20.00;70.60;;;;;;5076497;28;20114;-61
2023/07/22 07:47:05;;;;;;;4.82;3.60;;;20.10;70.40;;;;;;5080354;28;20040;-62
2023/07/22 07:49:31;;;;;;;3.97;2.20;;;20.20;70.00;;;;;;5077570;28;20036;-62
2023/07/22 07:51:57;;;;;;;4.78;3.00;;;20.30;69.80;;;;;;5080704;28;20037;-61
2023/07/22 07:54:22;;;;;;;5.57;3.03;;;20.30;69.80;;;;;;5082191;28;20387;-61
2023/07/22 07:56:48;;;;;;;6.55;3.60;;;20.40;69.80;;;;;;5066825;28;20448;-62
2023/07/22 07:59:14;;;;;;;7.20;2.92;;;20.40;69.30;;;;;;5075177;28;20028;-62
2023/07/22 08:01:41;;;;;;;7.80;3.30;;;20.40;69.30;;;;;;5069019;28;20042;-61
2023/07/22 08:04:08;;;;;;;2.88;1.90;;;20.40;69.20;;;;;;5074490;28;20089;-62
2023/07/22 08:06:34;;;;;;;4.75;3.17;;;20.40;69.30;;;;;;5070803;28;20556;-62
2023/07/22 08:09:00;;;;;;;11.93;3.72;;;20.50;69.10;;;;;;5070869;28;20121;-62
2023/07/22 08:11:25;;;;;;;3.35;2.28;;;20.60;68.90;;;;;;5072585;28;20044;-62
2023/07/22 08:13:52;;;;;;;5.28;3.35;;;20.60;68.70;;;;;;5081376;28;20032;-62
2023/07/22 08:16:17;;;;;;;4.43;2.67;;;20.60;68.30;;;;;;5072427;28;20035;-62
2023/07/22 08:18:43;;;;;;;5.95;3.42;;;20.70;68.30;;;;;;5073123;28;20040;-62
2023/07/22 08:21:09;;;;;;;5.85;3.70;;;20.70;68.00;;;;;;5078255;28;20162;-62
2023/07/22 08:23:36;;;;;;;4.65;2.28;;;20.70;67.60;;;;;;5078393;28;20036;-62
2023/07/22 08:26:05;;;;;;;6.45;2.83;;;20.70;67.20;;;;;;5076331;28;20494;-62
2023/07/22 08:28:32;;;;;;;6.03;2.92;;;20.70;67.30;;;;;;5078183;28;20071;-62
2023/07/22 08:30:58;;;;;;;5.32;2.88;;;20.80;66.90;;;;;;5076678;28;20489;-61
2023/07/22 08:33:24;;;;;;;5.82;2.25;;;20.80;66.40;;;;;;5076358;28;20051;-62
2023/07/22 08:35:51;;;;;;;3.65;2.33;;;20.80;66.30;;;;;;5077002;28;20115;-62
2023/07/22 08:38:17;;;;;;;3.95;2.28;;;20.80;65.90;;;;;;5078561;28;20020;-63
2023/07/22 08:40:43;;;;;;;4.85;1.90;;;20.90;65.90;;;;;;5067298;28;20032;-62
2023/07/22 08:43:11;;;;;;;2.60;1.83;;;20.90;66.10;;;;;;5070672;28;20044;-62
2023/07/22 08:45:38;;;;;;;8.35;3.03;;;21.00;66.30;;;;;;5069593;28;20098;-62
2023/07/22 08:48:09;;;;;;;5.32;2.60;;;21.10;66.10;;;;;;5071331;28;20738;-62
2023/07/22 08:50:48;;;;;;;5.47;1.92;;;21.10;66.00;;;;;;5070762;28;20023;-61
2023/07/22 08:53:14;;;;;;;6.22;2.38;;;21.20;66.00;;;;;;5069642;28;20495;-62
2023/07/22 08:55:40;;;;;;;5.10;2.03;;;21.30;65.90;;;;;;5084085;28;20032;-62
2023/07/22 08:58:09;;;;;;;5.03;2.22;;;21.40;65.50;;;;;;5067771;28;20051;-62
2023/07/22 09:00:36;;;;;;;3.78;2.00;;;21.40;65.20;;;;;;5067609;28;20379;-62
2023/07/22 09:03:02;;;;;;;2.97;1.95;;;21.30;66.00;;;;;;5072825;28;20109;-62
2023/07/22 09:05:28;;;;;;;2.25;1.73;;;21.30;65.20;;;;;;5070245;28;20418;-59
2023/07/22 09:07:56;;;;;;;2.60;1.50;;;21.30;65.10;;;;;;5074460;28;20028;-59
2023/07/22 09:10:24;;;;;;;3.75;1.88;;;21.30;65.20;;;;;;5074661;28;20471;-61
2023/07/22 09:12:51;;;;;;;4.65;1.80;;;21.30;65.00;;;;;;5074209;28;20475;-62
2023/07/22 09:15:18;;;;;;;3.85;2.22;;;21.30;65.30;;;;;;5064148;28;20027;-60
2023/07/22 09:17:44;;;;;;;2.30;1.73;;;21.30;65.30;;;;;;5067290;28;20353;-61
2023/07/22 09:20:14;;;;;;;5.35;1.85;;;21.40;65.40;;;;;;5069181;28;20119;-60
2023/07/22 09:22:47;;;;;;;5.40;2.05;;;21.60;65.40;;;;;;5070479;28;20025;-63
2023/07/22 09:25:24;;;;;;;4.20;2.20;;;21.70;64.50;;;;;;5072340;28;20040;-61
2023/07/22 09:27:52;;;;;;;4.90;2.58;;;21.80;63.60;;;;;;5068317;28;20024;-61
2023/07/22 09:30:40;;;;;;;3.55;2.08;;;21.80;63.20;;;;;;5071780;28;20039;-62
2023/07/22 09:33:21;;;;;;;5.90;2.75;;;21.70;63.10;;;;;;5070218;28;20066;-63
2023/07/22 09:35:49;;;;;;;3.78;2.45;;;21.60;62.70;;;;;;5069493;28;20099;-62
2023/07/22 09:38:22;;;;;;;5.88;2.13;;;21.60;63.10;;;;;;5071763;28;20024;-60
2023/07/22 09:40:47;;;;;;;3.17;1.85;;;21.60;63.30;;;;;;5072824;28;20032;-61
2023/07/22 09:43:13;;;;;;;2.40;1.67;;;21.50;62.60;;;;;;5075873;28;20033;-61
2023/07/22 09:45:39;;;;;;;3.17;2.03;;;21.50;62.60;;;;;;5073096;28;20032;-59
2023/07/22 09:48:05;;;;;;;3.17;1.95;;;21.50;62.90;;;;;;5077504;28;20525;-61
2023/07/22 09:50:31;;;;;;;5.63;2.50;;;21.60;62.40;;;;;;5074574;28;20394;-60
2023/07/22 09:52:59;;;;;;;3.67;1.40;;;21.70;62.00;;;;;;5073889;28;20115;-59
2023/07/22 09:55:29;;;;;;;1.63;1.30;;;21.80;61.80;;;;;;5075544;28;20032;-60
2023/07/22 09:57:56;;;;;;;2.58;1.67;;;22.00;61.50;;;;;;5077721;28;20032;-60
2023/07/22 10:00:25;;;;;;;1.75;1.45;;;22.20;59.90;;;;;;5071442;28;20471;-59
2023/07/22 10:02:52;;;;;;;3.10;1.40;;;22.20;60.10;;;;;;5074089;28;20028;-62
2023/07/22 10:05:21;;;;;;;3.25;1.65;;;22.30;60.20;;;;;;5068487;28;20037;-60
2023/07/22 10:07:49;;;;;;;2.22;1.38;;;22.40;60.10;;;;;;5072467;28;20350;-62
2023/07/22 10:10:17;;;;;;;4.03;1.90;;;22.50;59.90;;;;;;5081372;28;20036;-61
2023/07/22 10:12:44;;;;;;;3.65;1.80;;;22.60;58.20;;;;;;5071262;28;20372;-61
2023/07/22 10:15:12;;;;;;;3.55;1.23;;;22.50;58.60;;;;;;5074930;28;20037;-60
2023/07/22 10:17:38;;;;;;;1.40;1.30;;;22.40;58.80;;;;;;5067849;28;20024;-61
2023/07/22 10:20:07;;;;;;;2.88;1.48;;;22.30;58.80;;;;;;5072394;28;20035;-60
2023/07/22 10:22:35;;;;;;;7.40;2.35;;;22.30;58.60;;;;;;5089916;28;20122;-61
2023/07/22 10:25:06;;;;;;;1.98;1.77;;;22.20;59.20;;;;;;5069479;28;20032;-61
2023/07/22 10:27:32;;;;;;;1.48;1.20;;;22.20;59.50;;;;;;5074928;28;20379;-61
2023/07/22 10:29:59;;;;;;;2.47;1.42;;;22.20;59.10;;;;;;5072405;28;20024;-61
2023/07/22 10:32:37;;;;;;;2.72;1.23;;;22.30;59.20;;;;;;5072653;28;20086;-62
2023/07/22 10:35:03;;;;;;;6.75;1.75;;;22.30;59.20;;;;;;5071758;28;20052;-62
2023/07/22 10:37:31;;;;;;;2.50;1.58;;;22.30;58.60;;;;;;5079980;28;20032;-61
2023/07/22 10:40:24;;;;;;;2.38;1.70;;;22.40;58.50;;;;;;5071621;28;20514;-60
2023/07/22 10:43:06;;;;;;;2.95;2.00;;;22.50;58.60;;;;;;5072769;28;20035;-62
2023/07/22 10:45:33;;;;;;;2.07;1.20;;;22.60;58.60;;;;;;5069595;28;20059;-62
2023/07/22 10:48:06;;;;;;;2.50;1.58;;;22.60;58.30;;;;;;5070258;28;20287;-60
2023/07/22 10:50:49;;;;;;;1.58;1.33;;;22.70;58.30;;;;;;5072576;28;20502;-62
2023/07/22 10:53:23;;;;;;;;;;;22.80;58.10;;;;;;5069905;28;20033;-60
2023/07/22 10:56:12;;;;;;;2.28;1.70;;;22.80;57.30;;;;;;5073145;28;19912;-60
2023/07/22 10:58:44;;;;;;;1.60;1.33;;;22.80;57.40;;;;;;5068457;28;20020;-61
2023/07/22 11:01:31;;;;;;;1.40;1.30;;;22.70;57.90;;;;;;5075014;28;20039;-61
2023/07/22 11:04:10;;;;;;;3.30;1.38;;;22.80;57.10;;;;;;5074268;28;20089;-61
2023/07/22 11:06:53;;;;;;;1.83;1.02;;;22.80;56.40;;;;;;5071812;28;20039;-60
2023/07/22 11:09:29;;;;;;;1.20;1.00;;;22.70;56.90;;;;;;5071628;28;20114;-61
2023/07/22 11:12:06;;;;;;;1.65;1.10;;;22.70;57.40;;;;;;5064883;28;20039;-60
2023/07/22 11:14:53;;;;;;;1.73;1.00;;;22.60;57.30;;;;;;5063538;28;20028;-60
2023/07/22 11:17:29;;;;;;;1.30;0.98;;;22.50;57.40;;;;;;5070132;28;20434;-60
2023/07/22 11:19:56;;;;;;;1.98;1.15;;;22.40;57.70;;;;;;5060728;28;20032;-61
2023/07/22 11:22:22;;;;;;;1.58;0.75;;;22.30;57.90;;;;;;5078389;28;20033;-58
2023/07/22 11:24:48;;;;;;;2.30;1.30;;;22.20;58.20;;;;;;5078397;28;20024;-59
2023/07/22 11:27:14;;;;;;;1.27;1.00;;;22.10;58.40;;;;;;5077565;28;20028;-61
2023/07/22 11:29:40;;;;;;;2.25;1.25;;;22.10;58.50;;;;;;5080984;28;20181;-60
2023/07/22 11:32:07;;;;;;;1.52;0.98;;;22.10;58.40;;;;;;5074962;28;20055;-59
2023/07/22 11:34:33;;;;;;;1.67;0.93;;;22.00;58.70;;;;;;5078489;28;20056;-61
2023/07/22 11:36:59;;;;;;;1.67;1.52;;;22.00;58.60;;;;;;5079771;28;20506;-59
2023/07/22 11:39:27;;;;;;;2.15;1.15;;;21.90;58.10;;;;;;5076758;28;20099;-60
2023/07/22 11:41:53;;;;;;;3.65;0.85;;;21.90;58.10;;;;;;5075328;28;20090;-59
2023/07/22 11:44:22;;;;;;;4.28;1.58;;;21.80;58.60;;;;;;5080277;28;20115;-59
2023/07/22 11:46:58;;;;;;;1.58;0.90;;;21.80;58.80;;;;;;5080283;28;20024;-61
2023/07/22 11:49:34;;;;;;;1.55;1.20;;;21.90;59.00;;;;;;5075663;28;20025;-61
2023/07/22 11:52:01;;;;;;;2.03;0.93;;;21.90;59.00;;;;;;5078218;28;20052;-60
2023/07/22 11:54:28;;;;;;;1.42;0.90;;;21.90;58.90;;;;;;5076493;28;20037;-60
2023/07/22 11:56:57;;;;;;;1.58;1.45;;;21.90;58.80;;;;;;5078244;28;20061;-60
2023/07/22 11:59:39;;;;;;;1.17;0.80;;;22.00;58.20;;;;;;5077611;28;20043;-59
2023/07/22 12:02:05;;;;;;;1.05;0.93;;;22.00;58.30;;;;;;5075032;28;20040;-60
2023/07/22 12:04:34;;;;;;;2.50;1.25;;;21.90;58.40;;;;;;5070261;28;20670;-62
2023/07/22 12:07:00;;;;;;;1.60;1.00;;;21.90;58.60;;;;;;5071599;28;20513;-61
2023/07/22 12:09:26;;;;;;;2.47;1.10;;;21.90;59.00;;;;;;5073652;28;20028;-61
2023/07/22 12:11:58;;;;;;;1.92;0.80;;;21.90;58.90;;;;;;5079859;28;20047;-61
2023/07/22 12:14:24;;;;;;;2.20;1.17;;;21.90;58.70;;;;;;5071218;28;20387;-61
2023/07/22 12:16:56;;;;;;;4.22;1.27;;;21.80;58.70;;;;;;5078340;28;20028;-61
2023/07/22 12:19:22;;;;;;;3.42;1.40;;;21.90;58.60;;;;;;5078177;28;20055;-61
2023/07/22 12:21:48;;;;;;;1.20;1.10;;;22.00;58.50;;;;;;5073251;28;20495;-62
2023/07/22 12:24:14;;;;;;;1.88;1.42;;;22.20;58.30;;;;;;5077791;28;20471;-61
2023/07/22 12:26:40;;;;;;;1.48;1.17;;;22.40;57.80;;;;;;5071439;28;20131;-61
2023/07/22 12:29:07;;;;;;;1.30;1.20;;;22.70;57.40;;;;;;5079541;28;20036;-62
2023/07/22 12:31:33;;;;;;;4.03;1.13;;;23.00;57.10;;;;;;5071950;28;20517;-62
2023/07/22 12:33:59;;;;;;;1.00;0.90;;;23.30;56.60;;;;;;5076812;28;20056;-62
2023/07/22 12:36:25;;;;;;;0.85;0.57;;;23.30;56.20;;;;;;5067761;28;20063;-61
2023/07/22 12:38:51;;;;;;;1.02;0.95;;;23.10;55.90;;;;;;5073266;28;20017;-61
2023/07/22 12:41:16;;;;;;;0.52;0.52;;;23.00;55.70;;;;;;5085132;28;20063;-61
2023/07/22 12:43:42;;;;;;;0.77;0.70;;;22.80;56.10;;;;;;5072949;28;20028;-61
2023/07/22 12:46:08;;;;;;;0.90;0.80;;;22.70;56.40;;;;;;5075210;28;20413;-61
2023/07/22 12:48:34;;;;;;;2.65;1.17;;;22.60;57.00;;;;;;5071544;28;20032;-61